Metar Aviation Weather Data FACT

23°C Temp
13°C Dewpoint
% Humidity
Temperature
35 KM/H
22 MPH
19 KTS
180°
Due South

Wind Speed
Partly Cloudy
Conditions
Pressure 1018.92 (hPa) - 30.09 (in)
Visibility 6.2 (mi) - 10.0 (km)

Current Conditions
FACT
Metar :FACT 251100Z 18019KT 9999 FEW035 23/13 Q1019 NOSIG
Mon 25th March 13:00 pm

  Metar Aviation API Data Provided by https://www.checkwx.com/ PHP scripts by weather34.com ©2019